sensor_id;sensor_type;location;lat;lon;timestamp;P1;durP1;ratioP1;P2;durP2;ratioP2
55720;SDS011;41626;53.098;6.168;2022-12-13T00:01:51;48.80;;;30.55;;
55720;SDS011;41626;53.098;6.168;2022-12-13T00:04:18;43.97;;;28.30;;
55720;SDS011;41626;53.098;6.168;2022-12-13T00:06:45;42.53;;;28.05;;
55720;SDS011;41626;53.098;6.168;2022-12-13T00:09:12;46.28;;;29.70;;
55720;SDS011;41626;53.098;6.168;2022-12-13T00:11:39;43.28;;;28.90;;
55720;SDS011;41626;53.098;6.168;2022-12-13T00:14:05;48.10;;;30.70;;
55720;SDS011;41626;53.098;6.168;2022-12-13T00:16:30;45.17;;;29.73;;
55720;SDS011;41626;53.098;6.168;2022-12-13T00:18:57;43.90;;;28.50;;
55720;SDS011;41626;53.098;6.168;2022-12-13T00:21:24;46.17;;;28.60;;
55720;SDS011;41626;53.098;6.168;2022-12-13T00:23:55;43.47;;;27.48;;
55720;SDS011;41626;53.098;6.168;2022-12-13T00:26:23;43.85;;;28.52;;
55720;SDS011;41626;53.098;6.168;2022-12-13T00:28:51;41.03;;;28.83;;
55720;SDS011;41626;53.098;6.168;2022-12-13T00:31:18;48.90;;;29.60;;
55720;SDS011;41626;53.098;6.168;2022-12-13T00:33:45;41.20;;;28.67;;
55720;SDS011;41626;53.098;6.168;2022-12-13T00:36:11;42.43;;;27.83;;
55720;SDS011;41626;53.098;6.168;2022-12-13T00:38:37;40.58;;;27.15;;
55720;SDS011;41626;53.098;6.168;2022-12-13T00:41:15;41.40;;;27.35;;
55720;SDS011;41626;53.098;6.168;2022-12-13T00:43:42;43.45;;;28.17;;
55720;SDS011;41626;53.098;6.168;2022-12-13T00:46:12;40.20;;;26.75;;
55720;SDS011;41626;53.098;6.168;2022-12-13T00:48:39;42.45;;;26.73;;
55720;SDS011;41626;53.098;6.168;2022-12-13T00:51:06;44.03;;;27.67;;
55720;SDS011;41626;53.098;6.168;2022-12-13T00:53:33;42.80;;;27.60;;
55720;SDS011;41626;53.098;6.168;2022-12-13T00:55:59;41.35;;;28.23;;
55720;SDS011;41626;53.098;6.168;2022-12-13T00:58:25;45.10;;;30.53;;
55720;SDS011;41626;53.098;6.168;2022-12-13T01:00:50;42.50;;;28.02;;
55720;SDS011;41626;53.098;6.168;2022-12-13T01:03:16;42.60;;;28.65;;
55720;SDS011;41626;53.098;6.168;2022-12-13T01:05:47;44.42;;;28.52;;
55720;SDS011;41626;53.098;6.168;2022-12-13T01:08:13;43.35;;;27.42;;
55720;SDS011;41626;53.098;6.168;2022-12-13T01:10:43;37.45;;;25.73;;
55720;SDS011;41626;53.098;6.168;2022-12-13T01:13:10;39.72;;;26.50;;
55720;SDS011;41626;53.098;6.168;2022-12-13T01:15:39;41.77;;;28.40;;
55720;SDS011;41626;53.098;6.168;2022-12-13T01:18:06;41.97;;;27.33;;
55720;SDS011;41626;53.098;6.168;2022-12-13T01:20:32;41.28;;;26.77;;
55720;SDS011;41626;53.098;6.168;2022-12-13T01:22:58;40.27;;;26.07;;
55720;SDS011;41626;53.098;6.168;2022-12-13T01:25:23;42.57;;;28.27;;
55720;SDS011;41626;53.098;6.168;2022-12-13T01:27:49;42.63;;;27.70;;
55720;SDS011;41626;53.098;6.168;2022-12-13T01:30:15;42.35;;;27.10;;
55720;SDS011;41626;53.098;6.168;2022-12-13T01:32:41;39.60;;;25.77;;
55720;SDS011;41626;53.098;6.168;2022-12-13T01:35:06;40.53;;;25.80;;
55720;SDS011;41626;53.098;6.168;2022-12-13T01:37:32;41.73;;;26.53;;
55720;SDS011;41626;53.098;6.168;2022-12-13T01:40:00;41.50;;;26.52;;
55720;SDS011;41626;53.098;6.168;2022-12-13T01:42:29;41.75;;;25.95;;
55720;SDS011;41626;53.098;6.168;2022-12-13T01:47:35;39.83;;;26.50;;
55720;SDS011;41626;53.098;6.168;2022-12-13T01:50:14;40.30;;;27.55;;
55720;SDS011;41626;53.098;6.168;2022-12-13T01:52:49;39.53;;;25.52;;
55720;SDS011;41626;53.098;6.168;2022-12-13T01:55:17;40.63;;;26.70;;
55720;SDS011;41626;53.098;6.168;2022-12-13T01:57:44;40.03;;;26.87;;
55720;SDS011;41626;53.098;6.168;2022-12-13T02:00:12;39.40;;;25.80;;
55720;SDS011;41626;53.098;6.168;2022-12-13T02:02:38;41.25;;;27.02;;
55720;SDS011;41626;53.098;6.168;2022-12-13T02:05:15;39.80;;;25.55;;
55720;SDS011;41626;53.098;6.168;2022-12-13T02:08:14;40.03;;;27.13;;
55720;SDS011;41626;53.098;6.168;2022-12-13T02:10:41;41.20;;;26.40;;
55720;SDS011;41626;53.098;6.168;2022-12-13T02:13:08;42.45;;;28.00;;
55720;SDS011;41626;53.098;6.168;2022-12-13T02:15:49;41.03;;;26.25;;
55720;SDS011;41626;53.098;6.168;2022-12-13T02:27:09;41.38;;;26.52;;
55720;SDS011;41626;53.098;6.168;2022-12-13T02:35:25;36.70;;;24.17;;
55720;SDS011;41626;53.098;6.168;2022-12-13T02:43:44;36.88;;;23.17;;
55720;SDS011;41626;53.098;6.168;2022-12-13T02:46:18;41.70;;;26.83;;
55720;SDS011;41626;53.098;6.168;2022-12-13T02:48:47;39.40;;;24.02;;
55720;SDS011;41626;53.098;6.168;2022-12-13T02:51:15;37.13;;;25.83;;
55720;SDS011;41626;53.098;6.168;2022-12-13T02:53:41;37.88;;;24.88;;
55720;SDS011;41626;53.098;6.168;2022-12-13T02:56:08;37.85;;;25.88;;
55720;SDS011;41626;53.098;6.168;2022-12-13T02:58:34;37.33;;;26.75;;
55720;SDS011;41626;53.098;6.168;2022-12-13T03:03:41;39.60;;;25.23;;
55720;SDS011;41626;53.098;6.168;2022-12-13T03:10:01;40.63;;;26.67;;
55720;SDS011;41626;53.098;6.168;2022-12-13T03:15:35;40.53;;;25.42;;
55720;SDS011;41626;53.098;6.168;2022-12-13T03:18:07;42.15;;;27.05;;
55720;SDS011;41626;53.098;6.168;2022-12-13T03:20:44;37.28;;;25.25;;
55720;SDS011;41626;53.098;6.168;2022-12-13T03:23:17;39.80;;;25.83;;
55720;SDS011;41626;53.098;6.168;2022-12-13T03:25:45;38.63;;;24.20;;
55720;SDS011;41626;53.098;6.168;2022-12-13T03:28:13;42.72;;;26.83;;
55720;SDS011;41626;53.098;6.168;2022-12-13T03:30:39;42.17;;;27.17;;
55720;SDS011;41626;53.098;6.168;2022-12-13T03:33:04;37.20;;;25.30;;
55720;SDS011;41626;53.098;6.168;2022-12-13T03:35:30;37.05;;;24.25;;
55720;SDS011;41626;53.098;6.168;2022-12-13T03:37:56;45.15;;;26.52;;
55720;SDS011;41626;53.098;6.168;2022-12-13T03:40:23;41.22;;;25.38;;
55720;SDS011;41626;53.098;6.168;2022-12-13T03:42:49;37.75;;;25.10;;
55720;SDS011;41626;53.098;6.168;2022-12-13T03:45:15;38.50;;;25.23;;
55720;SDS011;41626;53.098;6.168;2022-12-13T03:47:42;38.50;;;25.00;;
55720;SDS011;41626;53.098;6.168;2022-12-13T03:50:08;37.10;;;24.90;;
55720;SDS011;41626;53.098;6.168;2022-12-13T03:52:34;36.60;;;23.33;;
55720;SDS011;41626;53.098;6.168;2022-12-13T03:54:59;41.30;;;25.67;;
55720;SDS011;41626;53.098;6.168;2022-12-13T03:57:25;37.27;;;24.30;;
55720;SDS011;41626;53.098;6.168;2022-12-13T03:59:51;36.70;;;24.13;;
55720;SDS011;41626;53.098;6.168;2022-12-13T04:02:16;38.10;;;24.07;;
55720;SDS011;41626;53.098;6.168;2022-12-13T04:04:42;42.15;;;25.80;;
55720;SDS011;41626;53.098;6.168;2022-12-13T04:07:08;35.60;;;23.00;;
55720;SDS011;41626;53.098;6.168;2022-12-13T04:09:33;34.97;;;24.10;;
55720;SDS011;41626;53.098;6.168;2022-12-13T04:11:59;36.80;;;23.70;;
55720;SDS011;41626;53.098;6.168;2022-12-13T04:14:43;38.35;;;23.52;;
55720;SDS011;41626;53.098;6.168;2022-12-13T04:17:08;37.57;;;25.13;;
55720;SDS011;41626;53.098;6.168;2022-12-13T04:19:34;39.92;;;24.95;;
55720;SDS011;41626;53.098;6.168;2022-12-13T04:22:00;35.28;;;23.08;;
55720;SDS011;41626;53.098;6.168;2022-12-13T04:24:25;33.88;;;23.95;;
55720;SDS011;41626;53.098;6.168;2022-12-13T04:26:51;36.03;;;25.17;;
55720;SDS011;41626;53.098;6.168;2022-12-13T04:29:17;36.47;;;23.48;;
55720;SDS011;41626;53.098;6.168;2022-12-13T04:31:43;36.50;;;23.67;;
55720;SDS011;41626;53.098;6.168;2022-12-13T04:34:08;35.13;;;23.95;;
55720;SDS011;41626;53.098;6.168;2022-12-13T04:36:34;35.50;;;23.05;;
55720;SDS011;41626;53.098;6.168;2022-12-13T04:39:03;37.08;;;22.50;;
55720;SDS011;41626;53.098;6.168;2022-12-13T04:41:34;35.75;;;22.45;;
55720;SDS011;41626;53.098;6.168;2022-12-13T04:44:01;39.72;;;24.73;;
55720;SDS011;41626;53.098;6.168;2022-12-13T04:46:27;32.25;;;22.35;;
55720;SDS011;41626;53.098;6.168;2022-12-13T04:48:53;32.75;;;21.02;;
55720;SDS011;41626;53.098;6.168;2022-12-13T04:51:19;37.97;;;22.80;;
55720;SDS011;41626;53.098;6.168;2022-12-13T04:53:45;37.47;;;23.67;;
55720;SDS011;41626;53.098;6.168;2022-12-13T04:56:11;31.83;;;21.60;;
55720;SDS011;41626;53.098;6.168;2022-12-13T04:58:36;35.17;;;23.55;;
55720;SDS011;41626;53.098;6.168;2022-12-13T05:01:05;37.58;;;22.75;;
55720;SDS011;41626;53.098;6.168;2022-12-13T05:03:32;34.20;;;22.15;;
55720;SDS011;41626;53.098;6.168;2022-12-13T05:05:58;34.30;;;24.17;;
55720;SDS011;41626;53.098;6.168;2022-12-13T05:08:24;39.28;;;25.83;;
55720;SDS011;41626;53.098;6.168;2022-12-13T05:10:49;37.45;;;24.23;;
55720;SDS011;41626;53.098;6.168;2022-12-13T05:13:15;36.45;;;23.42;;
55720;SDS011;41626;53.098;6.168;2022-12-13T05:15:41;31.88;;;22.52;;
55720;SDS011;41626;53.098;6.168;2022-12-13T05:18:07;35.53;;;23.73;;
55720;SDS011;41626;53.098;6.168;2022-12-13T05:20:33;35.97;;;22.73;;
55720;SDS011;41626;53.098;6.168;2022-12-13T05:23:00;33.05;;;22.17;;
55720;SDS011;41626;53.098;6.168;2022-12-13T05:25:26;35.20;;;23.20;;
55720;SDS011;41626;53.098;6.168;2022-12-13T05:27:52;31.15;;;22.25;;
55720;SDS011;41626;53.098;6.168;2022-12-13T05:30:18;36.13;;;24.83;;
55720;SDS011;41626;53.098;6.168;2022-12-13T05:32:44;33.80;;;23.92;;
55720;SDS011;41626;53.098;6.168;2022-12-13T05:35:11;36.10;;;22.83;;
55720;SDS011;41626;53.098;6.168;2022-12-13T05:37:37;32.90;;;22.13;;
55720;SDS011;41626;53.098;6.168;2022-12-13T05:40:03;32.55;;;22.88;;
55720;SDS011;41626;53.098;6.168;2022-12-13T05:42:29;32.92;;;22.40;;
55720;SDS011;41626;53.098;6.168;2022-12-13T05:44:55;38.58;;;22.60;;
55720;SDS011;41626;53.098;6.168;2022-12-13T05:47:21;34.93;;;22.83;;
55720;SDS011;41626;53.098;6.168;2022-12-13T05:49:46;42.43;;;25.50;;
55720;SDS011;41626;53.098;6.168;2022-12-13T05:52:19;38.60;;;25.63;;
55720;SDS011;41626;53.098;6.168;2022-12-13T05:54:45;39.13;;;25.55;;
55720;SDS011;41626;53.098;6.168;2022-12-13T05:57:11;37.87;;;23.27;;
55720;SDS011;41626;53.098;6.168;2022-12-13T05:59:37;39.10;;;23.88;;
55720;SDS011;41626;53.098;6.168;2022-12-13T06:02:03;35.80;;;23.55;;
55720;SDS011;41626;53.098;6.168;2022-12-13T06:04:28;34.80;;;24.17;;
55720;SDS011;41626;53.098;6.168;2022-12-13T06:06:54;34.42;;;24.10;;
55720;SDS011;41626;53.098;6.168;2022-12-13T06:09:20;35.80;;;23.87;;
55720;SDS011;41626;53.098;6.168;2022-12-13T06:11:46;36.78;;;22.50;;
55720;SDS011;41626;53.098;6.168;2022-12-13T06:14:13;31.73;;;21.92;;
55720;SDS011;41626;53.098;6.168;2022-12-13T06:16:39;32.08;;;21.27;;
55720;SDS011;41626;53.098;6.168;2022-12-13T06:19:04;32.63;;;21.63;;
55720;SDS011;41626;53.098;6.168;2022-12-13T06:21:31;35.83;;;21.93;;
55720;SDS011;41626;53.098;6.168;2022-12-13T06:23:57;37.23;;;21.67;;
55720;SDS011;41626;53.098;6.168;2022-12-13T06:26:22;35.83;;;22.92;;
55720;SDS011;41626;53.098;6.168;2022-12-13T06:28:48;35.22;;;23.15;;
55720;SDS011;41626;53.098;6.168;2022-12-13T06:31:14;34.60;;;22.80;;
55720;SDS011;41626;53.098;6.168;2022-12-13T06:33:39;32.38;;;21.88;;
55720;SDS011;41626;53.098;6.168;2022-12-13T06:36:05;32.45;;;21.23;;
55720;SDS011;41626;53.098;6.168;2022-12-13T06:38:31;32.95;;;22.02;;
55720;SDS011;41626;53.098;6.168;2022-12-13T06:41:10;31.50;;;20.83;;
55720;SDS011;41626;53.098;6.168;2022-12-13T06:43:40;31.85;;;21.15;;
55720;SDS011;41626;53.098;6.168;2022-12-13T06:46:09;34.88;;;21.60;;
55720;SDS011;41626;53.098;6.168;2022-12-13T06:48:35;33.75;;;23.15;;
55720;SDS011;41626;53.098;6.168;2022-12-13T06:51:02;35.58;;;23.23;;
55720;SDS011;41626;53.098;6.168;2022-12-13T06:53:29;37.72;;;23.27;;
55720;SDS011;41626;53.098;6.168;2022-12-13T06:55:55;34.72;;;22.75;;
55720;SDS011;41626;53.098;6.168;2022-12-13T06:58:21;34.13;;;22.73;;
55720;SDS011;41626;53.098;6.168;2022-12-13T07:00:47;32.13;;;22.50;;
55720;SDS011;41626;53.098;6.168;2022-12-13T07:03:13;33.47;;;24.02;;
55720;SDS011;41626;53.098;6.168;2022-12-13T07:05:39;33.40;;;21.10;;
55720;SDS011;41626;53.098;6.168;2022-12-13T07:08:05;34.93;;;22.53;;
55720;SDS011;41626;53.098;6.168;2022-12-13T07:10:31;32.28;;;22.15;;
55720;SDS011;41626;53.098;6.168;2022-12-13T07:12:57;33.13;;;22.63;;
55720;SDS011;41626;53.098;6.168;2022-12-13T07:15:23;37.03;;;23.17;;
55720;SDS011;41626;53.098;6.168;2022-12-13T07:17:49;31.37;;;20.00;;
55720;SDS011;41626;53.098;6.168;2022-12-13T07:20:15;36.50;;;22.27;;
55720;SDS011;41626;53.098;6.168;2022-12-13T07:22:43;32.15;;;21.25;;
55720;SDS011;41626;53.098;6.168;2022-12-13T07:25:09;32.13;;;22.08;;
55720;SDS011;41626;53.098;6.168;2022-12-13T07:27:35;34.17;;;21.17;;
55720;SDS011;41626;53.098;6.168;2022-12-13T07:30:00;34.83;;;22.77;;
55720;SDS011;41626;53.098;6.168;2022-12-13T07:32:26;35.40;;;23.55;;
55720;SDS011;41626;53.098;6.168;2022-12-13T07:34:52;36.58;;;25.80;;
55720;SDS011;41626;53.098;6.168;2022-12-13T07:37:18;35.80;;;23.90;;
55720;SDS011;41626;53.098;6.168;2022-12-13T07:39:44;37.00;;;23.83;;
55720;SDS011;41626;53.098;6.168;2022-12-13T07:42:09;39.83;;;26.35;;
55720;SDS011;41626;53.098;6.168;2022-12-13T07:44:35;37.05;;;23.88;;
55720;SDS011;41626;53.098;6.168;2022-12-13T07:47:01;36.13;;;23.70;;
55720;SDS011;41626;53.098;6.168;2022-12-13T07:49:27;33.75;;;23.48;;
55720;SDS011;41626;53.098;6.168;2022-12-13T07:51:53;33.95;;;23.02;;
55720;SDS011;41626;53.098;6.168;2022-12-13T07:54:18;39.63;;;23.63;;
55720;SDS011;41626;53.098;6.168;2022-12-13T07:56:44;38.20;;;25.23;;
55720;SDS011;41626;53.098;6.168;2022-12-13T07:59:10;34.97;;;22.73;;
55720;SDS011;41626;53.098;6.168;2022-12-13T08:01:35;37.20;;;25.27;;
55720;SDS011;41626;53.098;6.168;2022-12-13T08:04:01;33.47;;;23.83;;
55720;SDS011;41626;53.098;6.168;2022-12-13T08:06:27;34.65;;;22.52;;
55720;SDS011;41626;53.098;6.168;2022-12-13T08:08:54;34.00;;;23.00;;
55720;SDS011;41626;53.098;6.168;2022-12-13T08:11:20;37.67;;;23.38;;
55720;SDS011;41626;53.098;6.168;2022-12-13T08:13:46;36.78;;;24.95;;
55720;SDS011;41626;53.098;6.168;2022-12-13T08:16:12;36.25;;;21.98;;
55720;SDS011;41626;53.098;6.168;2022-12-13T08:18:42;36.25;;;23.02;;
55720;SDS011;41626;53.098;6.168;2022-12-13T08:21:08;36.42;;;24.55;;
55720;SDS011;41626;53.098;6.168;2022-12-13T08:23:34;33.83;;;21.05;;
55720;SDS011;41626;53.098;6.168;2022-12-13T08:26:02;34.53;;;22.75;;
55720;SDS011;41626;53.098;6.168;2022-12-13T08:28:29;36.40;;;23.30;;
55720;SDS011;41626;53.098;6.168;2022-12-13T08:31:04;33.37;;;22.50;;
55720;SDS011;41626;53.098;6.168;2022-12-13T08:33:33;36.08;;;23.27;;
55720;SDS011;41626;53.098;6.168;2022-12-13T08:36:12;33.28;;;23.40;;
55720;SDS011;41626;53.098;6.168;2022-12-13T08:38:42;35.22;;;24.10;;
55720;SDS011;41626;53.098;6.168;2022-12-13T08:41:09;37.97;;;23.55;;
55720;SDS011;41626;53.098;6.168;2022-12-13T08:43:35;39.53;;;24.17;;
55720;SDS011;41626;53.098;6.168;2022-12-13T08:46:00;38.75;;;24.50;;
55720;SDS011;41626;53.098;6.168;2022-12-13T08:48:27;37.60;;;24.97;;
55720;SDS011;41626;53.098;6.168;2022-12-13T08:50:52;35.13;;;23.98;;
55720;SDS011;41626;53.098;6.168;2022-12-13T08:53:18;32.63;;;23.90;;
55720;SDS011;41626;53.098;6.168;2022-12-13T08:55:44;38.20;;;24.85;;
55720;SDS011;41626;53.098;6.168;2022-12-13T08:58:11;35.03;;;22.97;;
55720;SDS011;41626;53.098;6.168;2022-12-13T09:00:36;38.40;;;24.35;;
55720;SDS011;41626;53.098;6.168;2022-12-13T09:03:03;36.28;;;24.35;;
55720;SDS011;41626;53.098;6.168;2022-12-13T09:05:29;35.15;;;23.80;;
55720;SDS011;41626;53.098;6.168;2022-12-13T09:07:57;35.47;;;23.88;;
55720;SDS011;41626;53.098;6.168;2022-12-13T09:10:23;34.60;;;25.42;;
55720;SDS011;41626;53.098;6.168;2022-12-13T09:12:49;38.90;;;25.80;;
55720;SDS011;41626;53.098;6.168;2022-12-13T09:15:15;36.20;;;24.65;;
55720;SDS011;41626;53.098;6.168;2022-12-13T09:17:41;36.65;;;25.13;;
55720;SDS011;41626;53.098;6.168;2022-12-13T09:20:08;37.03;;;24.73;;
55720;SDS011;41626;53.098;6.168;2022-12-13T09:22:35;42.20;;;25.80;;
55720;SDS011;41626;53.098;6.168;2022-12-13T09:25:02;39.15;;;26.42;;
55720;SDS011;41626;53.098;6.168;2022-12-13T09:27:29;36.55;;;25.30;;
55720;SDS011;41626;53.098;6.168;2022-12-13T09:29:56;36.75;;;25.02;;
55720;SDS011;41626;53.098;6.168;2022-12-13T09:32:22;37.78;;;25.90;;
55720;SDS011;41626;53.098;6.168;2022-12-13T09:34:48;38.35;;;25.42;;
55720;SDS011;41626;53.098;6.168;2022-12-13T09:37:15;41.83;;;26.17;;
55720;SDS011;41626;53.098;6.168;2022-12-13T09:39:41;40.17;;;26.92;;
55720;SDS011;41626;53.098;6.168;2022-12-13T09:42:23;38.43;;;26.67;;
55720;SDS011;41626;53.098;6.168;2022-12-13T09:44:53;35.63;;;25.02;;
55720;SDS011;41626;53.098;6.168;2022-12-13T09:47:29;39.80;;;25.20;;
55720;SDS011;41626;53.098;6.168;2022-12-13T09:49:59;37.35;;;27.48;;
55720;SDS011;41626;53.098;6.168;2022-12-13T09:52:26;39.30;;;26.43;;
55720;SDS011;41626;53.098;6.168;2022-12-13T09:54:59;32.30;;;24.23;;
55720;SDS011;41626;53.098;6.168;2022-12-13T09:57:26;38.65;;;26.73;;
55720;SDS011;41626;53.098;6.168;2022-12-13T09:59:53;36.50;;;27.20;;
55720;SDS011;41626;53.098;6.168;2022-12-13T10:02:24;37.33;;;26.15;;
55720;SDS011;41626;53.098;6.168;2022-12-13T10:04:53;35.20;;;23.58;;
55720;SDS011;41626;53.098;6.168;2022-12-13T10:07:23;36.05;;;25.08;;
55720;SDS011;41626;53.098;6.168;2022-12-13T10:09:51;36.03;;;25.00;;
55720;SDS011;41626;53.098;6.168;2022-12-13T10:12:23;37.30;;;26.17;;
55720;SDS011;41626;53.098;6.168;2022-12-13T10:14:50;36.67;;;26.25;;
55720;SDS011;41626;53.098;6.168;2022-12-13T10:17:24;35.63;;;25.52;;
55720;SDS011;41626;53.098;6.168;2022-12-13T10:19:55;37.22;;;25.70;;
55720;SDS011;41626;53.098;6.168;2022-12-13T10:22:21;37.33;;;26.45;;
55720;SDS011;41626;53.098;6.168;2022-12-13T10:27:24;35.83;;;24.77;;
55720;SDS011;41626;53.098;6.168;2022-12-13T10:32:31;36.88;;;25.20;;
55720;SDS011;41626;53.098;6.168;2022-12-13T10:35:20;32.80;;;23.75;;
55720;SDS011;41626;53.098;6.168;2022-12-13T10:37:46;36.67;;;25.85;;
55720;SDS011;41626;53.098;6.168;2022-12-13T10:48:21;35.92;;;24.95;;
55720;SDS011;41626;53.098;6.168;2022-12-13T10:51:13;35.63;;;25.53;;
55720;SDS011;41626;53.098;6.168;2022-12-13T10:53:57;33.47;;;24.57;;
55720;SDS011;41626;53.098;6.168;2022-12-13T10:59:34;42.22;;;27.05;;
55720;SDS011;41626;53.098;6.168;2022-12-13T11:02:24;32.10;;;23.80;;
55720;SDS011;41626;53.098;6.168;2022-12-13T11:04:52;34.25;;;25.63;;
55720;SDS011;41626;53.098;6.168;2022-12-13T11:07:23;36.47;;;25.08;;
55720;SDS011;41626;53.098;6.168;2022-12-13T11:09:51;35.25;;;25.10;;
55720;SDS011;41626;53.098;6.168;2022-12-13T11:12:18;33.75;;;22.95;;
55720;SDS011;41626;53.098;6.168;2022-12-13T11:14:58;31.50;;;22.92;;
55720;SDS011;41626;53.098;6.168;2022-12-13T11:17:28;31.80;;;22.27;;
55720;SDS011;41626;53.098;6.168;2022-12-13T11:19:57;30.40;;;23.10;;
55720;SDS011;41626;53.098;6.168;2022-12-13T11:22:29;32.38;;;23.45;;
55720;SDS011;41626;53.098;6.168;2022-12-13T11:25:19;32.43;;;22.43;;
55720;SDS011;41626;53.098;6.168;2022-12-13T11:35:28;31.17;;;20.97;;
55720;SDS011;41626;53.098;6.168;2022-12-13T11:41:01;30.50;;;22.13;;
55720;SDS011;41626;53.098;6.168;2022-12-13T11:43:41;31.30;;;22.63;;
55720;SDS011;41626;53.098;6.168;2022-12-13T11:49:12;30.80;;;21.75;;
55720;SDS011;41626;53.098;6.168;2022-12-13T11:51:47;28.65;;;20.92;;
55720;SDS011;41626;53.098;6.168;2022-12-13T11:54:22;29.63;;;20.42;;
55720;SDS011;41626;53.098;6.168;2022-12-13T11:57:14;30.55;;;22.52;;
55720;SDS011;41626;53.098;6.168;2022-12-13T12:00:03;26.50;;;21.23;;
55720;SDS011;41626;53.098;6.168;2022-12-13T12:02:34;31.85;;;21.73;;
55720;SDS011;41626;53.098;6.168;2022-12-13T12:05:09;30.23;;;20.83;;
55720;SDS011;41626;53.098;6.168;2022-12-13T12:07:59;27.00;;;19.98;;
55720;SDS011;41626;53.098;6.168;2022-12-13T12:10:34;26.98;;;19.05;;
55720;SDS011;41626;53.098;6.168;2022-12-13T12:13:04;26.20;;;19.00;;
55720;SDS011;41626;53.098;6.168;2022-12-13T12:15:40;30.77;;;21.15;;
55720;SDS011;41626;53.098;6.168;2022-12-13T12:18:15;25.77;;;18.77;;
55720;SDS011;41626;53.098;6.168;2022-12-13T12:20:43;27.10;;;20.70;;
55720;SDS011;41626;53.098;6.168;2022-12-13T12:28:24;30.92;;;20.95;;
55720;SDS011;41626;53.098;6.168;2022-12-13T12:31:13;26.70;;;19.42;;
55720;SDS011;41626;53.098;6.168;2022-12-13T12:36:40;25.38;;;18.65;;
55720;SDS011;41626;53.098;6.168;2022-12-13T12:39:46;27.83;;;18.70;;
55720;SDS011;41626;53.098;6.168;2022-12-13T12:45:14;23.87;;;18.50;;
55720;SDS011;41626;53.098;6.168;2022-12-13T12:51:13;25.95;;;19.33;;
55720;SDS011;41626;53.098;6.168;2022-12-13T13:05:32;25.23;;;18.55;;
55720;SDS011;41626;53.098;6.168;2022-12-13T13:11:08;28.95;;;18.23;;
55720;SDS011;41626;53.098;6.168;2022-12-13T13:13:44;24.10;;;18.45;;
55720;SDS011;41626;53.098;6.168;2022-12-13T13:21:48;23.45;;;17.88;;
55720;SDS011;41626;53.098;6.168;2022-12-13T13:27:19;25.73;;;19.17;;
55720;SDS011;41626;53.098;6.168;2022-12-13T13:29:51;26.13;;;17.95;;
55720;SDS011;41626;53.098;6.168;2022-12-13T13:32:24;25.55;;;18.13;;
55720;SDS011;41626;53.098;6.168;2022-12-13T13:34:52;26.90;;;19.52;;
55720;SDS011;41626;53.098;6.168;2022-12-13T13:42:36;25.10;;;20.07;;
55720;SDS011;41626;53.098;6.168;2022-12-13T13:48:23;23.57;;;17.50;;
55720;SDS011;41626;53.098;6.168;2022-12-13T14:27:52;29.75;;;21.58;;
55720;SDS011;41626;53.098;6.168;2022-12-13T14:30:24;27.52;;;20.73;;
55720;SDS011;41626;53.098;6.168;2022-12-13T14:32:49;26.98;;;21.48;;
55720;SDS011;41626;53.098;6.168;2022-12-13T14:35:20;29.70;;;22.20;;
55720;SDS011;41626;53.098;6.168;2022-12-13T14:37:53;31.40;;;22.90;;
55720;SDS011;41626;53.098;6.168;2022-12-13T14:40:27;30.83;;;22.90;;
55720;SDS011;41626;53.098;6.168;2022-12-13T14:42:55;33.95;;;23.38;;
55720;SDS011;41626;53.098;6.168;2022-12-13T14:45:28;29.63;;;22.20;;
55720;SDS011;41626;53.098;6.168;2022-12-13T14:48:11;33.60;;;24.77;;
55720;SDS011;41626;53.098;6.168;2022-12-13T14:50:40;31.40;;;24.08;;
55720;SDS011;41626;53.098;6.168;2022-12-13T14:56:11;36.08;;;24.65;;
55720;SDS011;41626;53.098;6.168;2022-12-13T14:58:38;33.53;;;25.37;;
55720;SDS011;41626;53.098;6.168;2022-12-13T15:01:29;33.83;;;25.60;;
55720;SDS011;41626;53.098;6.168;2022-12-13T15:07:22;33.60;;;24.73;;
55720;SDS011;41626;53.098;6.168;2022-12-13T15:10:21;34.25;;;26.33;;
55720;SDS011;41626;53.098;6.168;2022-12-13T15:13:04;32.80;;;26.07;;
55720;SDS011;41626;53.098;6.168;2022-12-13T15:15:37;43.22;;;26.60;;
55720;SDS011;41626;53.098;6.168;2022-12-13T15:18:12;33.30;;;24.77;;
55720;SDS011;41626;53.098;6.168;2022-12-13T15:20:44;31.52;;;23.20;;
55720;SDS011;41626;53.098;6.168;2022-12-13T15:25:45;35.28;;;27.05;;
55720;SDS011;41626;53.098;6.168;2022-12-13T15:28:16;35.15;;;25.75;;
55720;SDS011;41626;53.098;6.168;2022-12-13T15:30:42;33.70;;;25.13;;
55720;SDS011;41626;53.098;6.168;2022-12-13T15:35:42;34.40;;;27.25;;
55720;SDS011;41626;53.098;6.168;2022-12-13T15:38:12;37.63;;;28.75;;
55720;SDS011;41626;53.098;6.168;2022-12-13T15:40:43;36.03;;;27.33;;
55720;SDS011;41626;53.098;6.168;2022-12-13T15:43:13;35.67;;;27.10;;
55720;SDS011;41626;53.098;6.168;2022-12-13T15:45:44;34.75;;;27.38;;
55720;SDS011;41626;53.098;6.168;2022-12-13T15:48:24;35.03;;;25.83;;
55720;SDS011;41626;53.098;6.168;2022-12-13T15:51:03;33.13;;;24.83;;
55720;SDS011;41626;53.098;6.168;2022-12-13T15:53:34;36.42;;;25.52;;
55720;SDS011;41626;53.098;6.168;2022-12-13T15:56:00;32.08;;;23.95;;
55720;SDS011;41626;53.098;6.168;2022-12-13T15:58:28;31.75;;;23.45;;
55720;SDS011;41626;53.098;6.168;2022-12-13T16:00:58;33.73;;;25.93;;
55720;SDS011;41626;53.098;6.168;2022-12-13T16:03:29;37.25;;;25.63;;
55720;SDS011;41626;53.098;6.168;2022-12-13T16:06:07;32.47;;;23.20;;
55720;SDS011;41626;53.098;6.168;2022-12-13T16:08:37;34.22;;;23.20;;
55720;SDS011;41626;53.098;6.168;2022-12-13T16:11:04;30.67;;;23.42;;
55720;SDS011;41626;53.098;6.168;2022-12-13T16:13:35;32.08;;;23.02;;
55720;SDS011;41626;53.098;6.168;2022-12-13T16:18:40;31.83;;;24.48;;
55720;SDS011;41626;53.098;6.168;2022-12-13T16:21:08;31.75;;;23.30;;
55720;SDS011;41626;53.098;6.168;2022-12-13T16:23:34;32.00;;;23.77;;
55720;SDS011;41626;53.098;6.168;2022-12-13T16:26:00;32.10;;;23.50;;
55720;SDS011;41626;53.098;6.168;2022-12-13T16:28:26;31.87;;;24.13;;
55720;SDS011;41626;53.098;6.168;2022-12-13T16:30:57;33.63;;;24.52;;
55720;SDS011;41626;53.098;6.168;2022-12-13T16:33:28;34.65;;;24.55;;
55720;SDS011;41626;53.098;6.168;2022-12-13T16:35:54;35.20;;;24.80;;
55720;SDS011;41626;53.098;6.168;2022-12-13T16:38:20;34.78;;;25.10;;
55720;SDS011;41626;53.098;6.168;2022-12-13T16:40:46;35.63;;;25.40;;
55720;SDS011;41626;53.098;6.168;2022-12-13T16:43:15;39.20;;;26.70;;
55720;SDS011;41626;53.098;6.168;2022-12-13T16:45:43;38.50;;;26.75;;
55720;SDS011;41626;53.098;6.168;2022-12-13T16:48:13;39.37;;;27.33;;
55720;SDS011;41626;53.098;6.168;2022-12-13T16:50:43;37.35;;;28.00;;
55720;SDS011;41626;53.098;6.168;2022-12-13T16:53:11;37.08;;;27.42;;
55720;SDS011;41626;53.098;6.168;2022-12-13T16:55:37;41.35;;;29.50;;
55720;SDS011;41626;53.098;6.168;2022-12-13T16:58:06;39.72;;;28.38;;
55720;SDS011;41626;53.098;6.168;2022-12-13T17:00:35;39.10;;;29.10;;
55720;SDS011;41626;53.098;6.168;2022-12-13T17:03:00;42.50;;;31.55;;
55720;SDS011;41626;53.098;6.168;2022-12-13T17:05:27;45.40;;;32.00;;
55720;SDS011;41626;53.098;6.168;2022-12-13T17:07:53;43.15;;;31.13;;
55720;SDS011;41626;53.098;6.168;2022-12-13T17:10:20;40.42;;;30.50;;
55720;SDS011;41626;53.098;6.168;2022-12-13T17:12:47;45.47;;;31.15;;